Terminal Aerodrome Forecast
Issued by NWS

Current Version | Previous Version | Graphics & Text | Print | Product List | Glossary On
Versions: 1 2 3 4 5 6 7 8 9 10 11 12 13 14 15 16 17
625
FTUS41 KILN 241727
TAFLUK
TAF
KLUK 241727Z 2418/2518 07008KT P6SM -SHRA FEW008 OVC015
     FM250000 01006KT 5SM BR VCSH OVC009
     FM251300 35010KT P6SM OVC015=

USA.gov is the U.S. government's official web portal to all federal, state and local government web resources and services.